Current Weather

Atar

Atar, Mauritania (GQPA)

Report from: Saturday, February 4, 2023 12:00 PM GMT
Current time: Sunday, February 5, 2023 4:34 AM GMT

Nearby weather
Weather history
Weather forecast

Temperature22.0°C (71.6°F)
Dew point-4.0°C (24.8°F)
Winds 12 kts (6.2 m/s, 13.8 mph) East-Northeast (60°)
Visibility4.3 mi. (7 km)
Altimeter30.21 in.Hg (1023 mB)
Relative humidity17 %
Density altitude566 ft. (173 m)
Flight conditions Marginal Visual Meteorological Conditions
Raw dataGQPA 041200Z 06012KT 7000 NSC 22/M04 Q1023
An unhandled exception has occurred. See browser dev tools for details. Reload 🗙